Time;durP1;ratioP1;P1;durP2;ratioP2;P2;SDS_P1;SDS_P2;PMS_P1;PMS_P2;Temp;Humidity;BMP_temperature;BMP_pressure;BME280_temperature;BME280_humidity;BME280_pressure;Samples;Min_cycle;Max_cycle;Signal;HPM_P1;HPM_P2
2021/03/01 00:01:45;;;;;;;22.13;13.73;;;;;;;1.55;75.70;101258.69;4983496;28;20050;-71
2021/03/01 00:04:10;;;;;;;20.20;11.23;;;;;;;1.55;75.83;101269.97;4983722;28;20049;-70
2021/03/01 00:06:36;;;;;;;22.75;13.38;;;;;;;1.58;75.80;101261.34;4961205;28;20030;-70
2021/03/01 00:09:01;;;;;;;27.88;14.60;;;;;;;1.50;75.81;101269.00;4983977;28;20042;-70
2021/03/01 00:11:27;;;;;;;32.20;16.65;;;;;;;1.40;75.52;101267.16;4980314;28;20039;-69
2021/03/01 00:13:52;;;;;;;23.67;13.75;;;;;;;1.36;75.89;101266.28;4981958;28;20034;-70
2021/03/01 00:16:18;;;;;;;24.45;13.95;;;;;;;1.35;76.03;101258.44;4982185;28;20034;-69
2021/03/01 00:18:43;;;;;;;24.02;13.43;;;;;;;1.34;75.97;101259.31;4982935;28;20030;-70
2021/03/01 00:21:08;;;;;;;27.95;14.45;;;;;;;1.30;75.52;101268.78;4982550;28;20051;-71
2021/03/01 00:23:34;;;;;;;23.38;13.60;;;;;;;1.25;75.35;101265.25;4982362;28;20049;-71
2021/03/01 00:25:59;;;;;;;20.95;11.82;;;;;;;1.20;75.99;101265.19;4981550;28;20062;-72
2021/03/01 00:28:24;;;;;;;24.33;12.63;;;;;;;1.18;76.18;101268.63;4981606;28;20108;-71
2021/03/01 00:30:50;;;;;;;25.73;14.70;;;;;;;1.18;76.53;101266.94;4982143;28;20481;-71
2021/03/01 00:33:15;;;;;;;24.67;13.30;;;;;;;1.18;75.90;101272.13;4979220;28;20043;-74
2021/03/01 00:35:40;;;;;;;20.20;13.68;;;;;;;1.18;75.64;101273.81;4981100;28;20039;-71
2021/03/01 00:38:06;;;;;;;24.08;13.60;;;;;;;1.16;76.09;101275.53;4981590;28;20026;-70
2021/03/01 00:40:31;;;;;;;26.45;15.25;;;;;;;1.12;76.39;101279.81;4981814;28;20081;-70
2021/03/01 00:42:57;;;;;;;21.30;11.93;;;;;;;1.14;75.88;101279.84;4980687;28;20414;-70
2021/03/01 00:45:22;;;;;;;24.02;12.20;;;;;;;1.11;76.53;101274.59;4973290;28;20511;-71
2021/03/01 00:47:47;;;;;;;21.73;12.93;;;;;;;1.08;76.20;101275.41;4979926;28;20045;-72
2021/03/01 00:50:13;;;;;;;29.27;14.45;;;;;;;1.05;76.40;101270.19;4975291;28;20117;-70
2021/03/01 00:52:39;;;;;;;19.83;12.90;;;;;;;1.04;76.11;101278.84;4981999;28;20114;-71
2021/03/01 00:55:05;;;;;;;21.15;12.18;;;;;;;1.02;76.03;101276.22;4981183;28;20035;-71
2021/03/01 00:57:31;;;;;;;22.48;12.65;;;;;;;1.01;75.64;101268.38;4980771;28;20544;-71
2021/03/01 00:59:56;;;;;;;18.65;10.05;;;;;;;1.05;75.81;101271.06;4965241;28;20122;-71
2021/03/01 01:02:21;;;;;;;22.00;13.52;;;;;;;1.11;75.51;101269.38;4970267;28;20049;-70
2021/03/01 01:04:47;;;;;;;18.67;11.95;;;;;;;1.13;75.16;101268.56;4970853;28;20506;-71
2021/03/01 01:07:12;;;;;;;17.48;11.00;;;;;;;1.19;75.59;101272.97;4971868;28;20145;-72
2021/03/01 01:09:37;;;;;;;18.02;11.10;;;;;;;1.25;75.34;101267.84;4970669;28;20035;-72
2021/03/01 01:12:04;;;;;;;20.65;9.98;;;;;;;1.29;75.04;101269.66;4970606;28;20065;-72
2021/03/01 01:14:29;;;;;;;21.45;12.38;;;;;;;1.28;75.47;101263.59;4972764;28;20077;-72
2021/03/01 01:16:54;;;;;;;19.40;11.55;;;;;;;1.29;74.40;101259.25;4982511;28;20582;-72
2021/03/01 01:19:20;;;;;;;25.15;11.57;;;;;;;1.30;74.90;101258.38;4971899;28;20043;-71
2021/03/01 01:21:45;;;;;;;20.70;11.52;;;;;;;1.27;74.96;101254.03;4985120;28;20031;-72
2021/03/01 01:24:11;;;;;;;21.73;12.95;;;;;;;1.22;75.38;101252.22;4991808;28;20030;-70
2021/03/01 01:26:36;;;;;;;25.77;13.30;;;;;;;1.21;76.05;101258.28;4991554;28;20112;-70
2021/03/01 01:29:01;;;;;;;27.60;14.30;;;;;;;1.17;75.41;101254.78;4992023;28;20042;-71
2021/03/01 01:31:27;;;;;;;23.48;14.10;;;;;;;1.15;75.58;101247.81;4991645;28;20064;-71
2021/03/01 01:33:52;;;;;;;24.58;13.10;;;;;;;1.16;75.82;101252.16;4991080;28;20057;-72
2021/03/01 01:36:18;;;;;;;17.88;11.10;;;;;;;1.16;75.84;101249.56;4988817;28;20061;-70
2021/03/01 01:38:43;;;;;;;22.10;12.18;;;;;;;1.17;76.07;101251.31;4954288;28;20082;-69
2021/03/01 01:41:08;;;;;;;15.55;9.57;;;;;;;1.16;76.71;101244.38;4963787;28;20018;-69
2021/03/01 01:43:34;;;;;;;20.23;12.18;;;;;;;1.16;76.18;101252.16;4967483;28;20046;-69
2021/03/01 01:45:59;;;;;;;18.17;11.80;;;;;;;1.16;76.27;101245.25;4958967;28;20031;-71
2021/03/01 01:48:25;;;;;;;18.92;10.90;;;;;;;1.14;76.28;101253.88;4952943;29;20043;-70
2021/03/01 01:50:50;;;;;;;20.98;11.15;;;;;;;1.14;75.86;101246.94;4952902;28;20035;-70
2021/03/01 01:53:15;;;;;;;22.08;10.70;;;;;;;1.15;76.00;101247.81;4952202;28;20691;-70
2021/03/01 01:55:41;;;;;;;20.27;11.20;;;;;;;1.13;75.98;101250.38;4951531;28;20094;-70
2021/03/01 01:58:06;;;;;;;21.63;14.65;;;;;;;1.12;75.93;101248.66;4951856;28;20502;-70
2021/03/01 02:03:08;;;;;;;18.95;10.77;;;;;;;1.07;75.47;101248.59;4951590;28;20054;-70
2021/03/01 02:05:37;;;;;;;21.15;11.30;;;;;;;1.03;75.58;101251.13;4951347;28;20499;-70
2021/03/01 02:08:15;;;;;;;19.27;12.30;;;;;;;0.99;75.90;101252.81;4949928;28;20042;-69
2021/03/01 02:10:51;;;;;;;20.33;12.20;;;;;;;0.95;75.59;101247.56;4951258;28;20043;-69
2021/03/01 02:13:27;;;;;;;18.20;11.43;;;;;;;0.91;76.37;101246.66;4952264;28;20119;-71
2021/03/01 02:15:57;;;;;;;26.10;13.70;;;;;;;0.87;76.48;101252.63;4951528;28;20118;-70
2021/03/01 02:18:23;;;;;;;18.27;11.07;;;;;;;0.82;76.31;101256.91;4934172;29;20039;-70
2021/03/01 02:20:49;;;;;;;21.40;13.50;;;;;;;0.78;76.01;101250.78;4950128;28;20073;-70
2021/03/01 02:23:16;;;;;;;21.50;11.23;;;;;;;0.78;76.46;101253.38;4951382;28;20039;-69
2021/03/01 02:25:48;;;;;;;24.30;11.27;;;;;;;0.79;76.51;101249.94;4951163;28;20047;-69
2021/03/01 02:28:14;;;;;;;17.25;9.77;;;;;;;0.81;76.42;101244.75;4951162;28;20523;-70
2021/03/01 02:30:48;;;;;;;22.65;13.15;;;;;;;0.79;76.86;101243.88;4951012;28;20031;-69
2021/03/01 02:33:18;;;;;;;20.60;11.40;;;;;;;0.72;76.59;101245.50;4957940;28;20027;-69
2021/03/01 02:35:49;;;;;;;17.48;11.23;;;;;;;0.66;76.78;101244.53;4979991;28;20035;-68
2021/03/01 02:38:18;;;;;;;18.80;12.40;;;;;;;0.59;76.63;101240.97;4970529;28;20097;-70
2021/03/01 02:40:44;;;;;;;22.95;11.98;;;;;;;0.52;76.74;101234.84;4986896;28;20030;-70
2021/03/01 02:43:12;;;;;;;20.45;11.88;;;;;;;0.47;77.48;101233.91;4989348;28;20398;-70
2021/03/01 02:45:38;;;;;;;18.75;11.98;;;;;;;0.45;77.31;101240.78;4988423;28;20169;-70
2021/03/01 02:48:03;;;;;;;17.52;11.27;;;;;;;0.39;76.82;101238.06;4988683;28;20129;-70
2021/03/01 02:50:30;;;;;;;23.13;13.30;;;;;;;0.39;76.94;101230.28;4989168;28;20499;-69
2021/03/01 02:52:56;;;;;;;18.02;10.35;;;;;;;0.43;76.75;101238.16;4955115;28;20039;-70
2021/03/01 02:55:24;;;;;;;22.17;11.27;;;;;;;0.47;77.32;101233.00;4970359;28;20123;-69
2021/03/01 02:57:51;;;;;;;26.10;11.70;;;;;;;0.43;76.88;101232.09;4970169;28;20026;-70
2021/03/01 03:00:18;;;;;;;17.02;9.65;;;;;;;0.43;77.32;101235.56;4969884;28;20031;-70
2021/03/01 03:02:45;;;;;;;16.65;10.98;;;;;;;0.42;77.23;101238.16;4970644;28;20038;-69
2021/03/01 03:05:12;;;;;;;16.60;10.65;;;;;;;0.43;77.22;101232.09;4969888;28;20038;-70
2021/03/01 03:07:41;;;;;;;20.58;11.02;;;;;;;0.43;76.91;101234.69;4969991;28;20429;-71
2021/03/01 03:10:08;;;;;;;18.98;10.38;;;;;;;0.46;77.02;101232.13;4970667;28;20111;-70
2021/03/01 03:12:37;;;;;;;20.17;10.05;;;;;;;0.45;76.46;101233.00;4970784;28;20035;-70
2021/03/01 03:15:04;;;;;;;18.60;10.43;;;;;;;0.47;76.65;101233.00;4970258;28;20366;-70
2021/03/01 03:17:31;;;;;;;24.40;11.20;;;;;;;0.47;77.55;101227.81;4978457;28;20050;-70
2021/03/01 03:19:57;;;;;;;17.75;10.88;;;;;;;0.45;76.95;101229.53;5003589;28;20026;-70
2021/03/01 03:22:22;;;;;;;17.63;11.75;;;;;;;0.46;77.03;101220.91;4972857;28;20101;-70
2021/03/01 03:24:48;;;;;;;14.88;8.65;;;;;;;0.50;76.47;101225.28;4967675;28;20666;-70
2021/03/01 03:27:13;;;;;;;14.52;7.88;;;;;;;0.44;76.49;101213.06;4969483;28;20043;-70
2021/03/01 03:29:38;;;;;;;15.18;9.55;;;;;;;0.39;76.39;101220.81;4964024;28;20518;-69
2021/03/01 03:32:04;;;;;;;22.67;11.27;;;;;;;0.32;76.12;101218.06;4950545;28;20109;-70
2021/03/01 03:34:30;;;;;;;15.98;9.10;;;;;;;0.28;76.08;101217.16;4970946;28;20050;-70
2021/03/01 03:37:11;;;;;;;13.00;7.50;;;;;;;0.32;76.86;101221.56;4978929;28;20510;-70
2021/03/01 03:39:43;;;;;;;13.32;7.85;;;;;;;0.36;76.54;101220.75;4976293;28;20038;-70
2021/03/01 03:42:11;;;;;;;14.07;9.20;;;;;;;0.39;76.65;101219.91;4992615;28;20122;-70
2021/03/01 03:44:39;;;;;;;16.25;9.68;;;;;;;0.37;77.05;101226.78;4992339;28;20034;-70
2021/03/01 03:47:06;;;;;;;15.13;8.10;;;;;;;0.38;76.63;101219.06;4992160;28;20049;-69
2021/03/01 03:49:34;;;;;;;20.90;11.55;;;;;;;0.41;76.02;101226.00;4992435;28;20065;-69
2021/03/01 03:52:02;;;;;;;14.70;8.77;;;;;;;0.39;76.69;101225.09;4992783;28;20081;-69
2021/03/01 03:54:30;;;;;;;14.45;8.27;;;;;;;0.40;76.38;101221.69;4992318;28;20026;-69
2021/03/01 03:56:57;;;;;;;14.52;8.13;;;;;;;0.43;76.14;101220.00;4992600;28;20031;-71
2021/03/01 03:59:26;;;;;;;13.18;8.18;;;;;;;0.47;76.31;101220.03;4992909;28;20026;-70
2021/03/01 04:01:55;;;;;;;17.35;8.85;;;;;;;0.46;76.29;101226.94;4992643;28;20038;-70
2021/03/01 04:04:23;;;;;;;18.17;9.00;;;;;;;0.41;75.89;101226.00;4992663;28;20128;-71
2021/03/01 04:06:50;;;;;;;16.55;8.00;;;;;;;0.35;76.23;101226.78;4992654;28;20034;-70
2021/03/01 04:09:18;;;;;;;12.10;8.13;;;;;;;0.35;76.10;101223.34;4992482;28;20518;-68
2021/03/01 04:11:45;;;;;;;17.98;10.48;;;;;;;0.37;75.84;101230.28;4992523;28;20041;-70
2021/03/01 04:14:17;;;;;;;15.32;8.88;;;;;;;0.33;76.32;101225.03;4992398;28;20031;-70
2021/03/01 04:16:49;;;;;;;14.30;8.43;;;;;;;0.28;76.11;101230.13;4991841;28;20038;-70
2021/03/01 04:19:15;;;;;;;22.02;8.43;;;;;;;0.32;76.11;101228.44;4974570;28;20311;-70
2021/03/01 04:21:42;;;;;;;17.08;8.65;;;;;;;0.34;76.05;101227.63;4988020;28;20410;-70
2021/03/01 04:24:09;;;;;;;17.02;7.65;;;;;;;0.29;75.86;101226.69;4952146;28;20038;-70
2021/03/01 04:26:35;;;;;;;14.85;8.95;;;;;;;0.30;76.15;101225.84;4953078;28;20046;-70
2021/03/01 04:29:02;;;;;;;14.63;9.10;;;;;;;0.27;76.58;101225.81;4953145;29;20039;-70
2021/03/01 04:31:28;;;;;;;15.45;11.07;;;;;;;0.21;76.12;101228.28;4953495;29;20031;-70
2021/03/01 04:33:56;;;;;;;18.92;10.45;;;;;;;0.17;76.45;101226.47;4953782;28;20053;-71
2021/03/01 04:36:23;;;;;;;16.85;8.35;;;;;;;0.12;76.86;101223.81;4953281;28;20072;-70
2021/03/01 04:38:48;;;;;;;15.80;8.80;;;;;;;0.11;77.10;101226.41;4953392;29;20102;-70
2021/03/01 04:41:16;;;;;;;15.02;9.07;;;;;;;0.05;76.69;101223.69;4953436;29;20051;-71
2021/03/01 04:43:42;;;;;;;19.50;9.80;;;;;;;0.02;76.88;101229.69;4952745;28;20059;-70
2021/03/01 04:46:08;;;;;;;16.83;8.27;;;;;;;-0.04;76.78;101224.41;4952466;28;20147;-71
2021/03/01 04:48:36;;;;;;;20.13;8.55;;;;;;;-0.09;77.13;101226.94;4952617;28;20047;-71
2021/03/01 04:51:03;;;;;;;12.60;7.22;;;;;;;-0.10;77.55;101227.78;4952844;28;20038;-69
2021/03/01 04:53:29;;;;;;;15.52;9.02;;;;;;;-0.08;77.18;101227.78;4952974;28;20039;-70
2021/03/01 04:55:55;;;;;;;16.55;7.95;;;;;;;-0.06;77.06;101236.47;4966714;28;20043;-70
2021/03/01 04:58:22;;;;;;;15.00;7.53;;;;;;;-0.03;77.21;101231.34;4971807;28;20043;-70
2021/03/01 05:00:48;;;;;;;24.05;8.48;;;;;;;0.00;76.84;101223.63;4971975;28;20122;-70
2021/03/01 05:03:13;;;;;;;18.48;9.00;;;;;;;-0.05;77.36;101231.31;4971622;28;20122;-70
2021/03/01 05:05:41;;;;;;;15.93;8.77;;;;;;;-0.10;77.42;101235.56;4971176;28;20031;-71
2021/03/01 05:08:12;;;;;;;14.18;7.97;;;;;;;-0.15;77.05;101228.53;4971484;28;20130;-70
2021/03/01 05:10:39;;;;;;;17.08;8.88;;;;;;;-0.17;77.62;101228.53;4971822;28;20039;-70
2021/03/01 05:13:04;;;;;;;15.00;7.43;;;;;;;-0.18;77.26;101229.34;4971543;28;20043;-71
2021/03/01 05:15:29;;;;;;;14.32;9.45;;;;;;;-0.18;77.30;101236.25;4971038;28;20403;-71
2021/03/01 05:17:57;;;;;;;18.15;8.30;;;;;;;-0.20;77.34;101235.34;4971880;28;20113;-71
2021/03/01 05:20:22;;;;;;;14.05;9.13;;;;;;;-0.24;77.40;101231.84;4971579;28;20379;-71
2021/03/01 05:22:47;;;;;;;17.65;9.18;;;;;;;-0.24;77.48;101229.25;4971282;28;20130;-70
2021/03/01 05:25:13;;;;;;;17.02;9.48;;;;;;;-0.25;77.70;101238.75;4970811;28;20043;-72
2021/03/01 05:27:39;;;;;;;14.50;6.78;;;;;;;-0.22;77.39;101233.63;4971197;28;20043;-71
2021/03/01 05:30:07;;;;;;;24.63;11.35;;;;;;;-0.23;76.85;101239.63;4971315;28;20159;-69
2021/03/01 05:32:32;;;;;;;16.23;8.52;;;;;;;-0.24;77.60;101237.91;4957748;28;20042;-71
2021/03/01 05:34:59;;;;;;;15.98;8.82;;;;;;;-0.22;77.57;101235.34;4951995;28;20042;-70
2021/03/01 05:37:24;;;;;;;17.48;9.25;;;;;;;-0.25;77.64;101238.75;4952499;28;20043;-70
2021/03/01 05:39:49;;;;;;;16.48;8.98;;;;;;;-0.23;77.12;101233.56;4951090;28;20475;-69
2021/03/01 05:42:20;;;;;;;16.42;7.60;;;;;;;-0.20;77.21;101225.84;4951905;28;20043;-70
2021/03/01 05:44:45;;;;;;;19.83;7.13;;;;;;;-0.18;77.60;101236.25;4951432;28;20415;-70
2021/03/01 05:47:11;;;;;;;15.60;8.85;;;;;;;-0.16;77.26;101230.25;4951796;28;20042;-70
2021/03/01 05:49:41;;;;;;;16.75;7.63;;;;;;;-0.13;77.60;101235.47;4952039;28;20035;-70
2021/03/01 05:52:09;;;;;;;15.75;6.97;;;;;;;-0.10;77.06;101242.44;4951869;28;20043;-69
2021/03/01 05:54:35;;;;;;;16.58;9.10;;;;;;;-0.11;76.81;101243.31;4951347;28;20603;-72
2021/03/01 05:57:05;;;;;;;14.18;7.97;;;;;;;-0.13;76.50;101238.06;4949960;28;20066;-71
2021/03/01 05:59:30;;;;;;;17.27;8.90;;;;;;;-0.10;76.47;101234.66;4952164;28;20035;-70
2021/03/01 06:01:57;;;;;;;15.38;8.98;;;;;;;-0.11;76.64;101227.75;4952380;28;20451;-70
2021/03/01 06:04:22;;;;;;;13.30;8.02;;;;;;;-0.12;76.62;101231.19;4965472;28;20035;-70
2021/03/01 06:06:48;;;;;;;14.70;8.15;;;;;;;-0.07;76.60;101234.75;4970633;28;20042;-71
2021/03/01 06:09:13;;;;;;;17.52;7.63;;;;;;;-0.08;76.21;101236.44;4970696;28;20152;-71
2021/03/01 06:11:38;;;;;;;19.70;10.10;;;;;;;-0.08;76.34;101239.03;4970693;28;20506;-71
2021/03/01 06:14:05;;;;;;;14.68;7.82;;;;;;;-0.08;76.34;101240.75;4968741;28;20039;-70
2021/03/01 06:16:31;;;;;;;14.45;8.82;;;;;;;-0.05;76.51;101240.78;4951273;28;20043;-70
2021/03/01 06:18:56;;;;;;;15.68;9.55;;;;;;;-0.06;76.24;101250.31;4951928;28;20047;-70
2021/03/01 06:21:22;;;;;;;19.08;9.32;;;;;;;-0.03;76.67;101242.56;4951262;28;20170;-69
2021/03/01 06:23:49;;;;;;;18.25;9.75;;;;;;;-0.02;76.06;101252.13;4933410;28;20066;-70
2021/03/01 06:26:32;;;;;;;17.65;10.02;;;;;;;-0.02;76.26;101251.25;4951231;28;20039;-71
2021/03/01 06:29:03;;;;;;;19.73;10.23;;;;;;;0.01;76.50;101256.47;4951085;28;20047;-71
2021/03/01 06:31:42;;;;;;;17.75;9.93;;;;;;;0.11;77.28;101265.28;4950891;28;20058;-71
2021/03/01 06:34:27;;;;;;;14.57;8.55;;;;;;;0.17;76.85;101260.19;4972817;28;20117;-70
2021/03/01 06:37:01;;;;;;;24.23;13.27;;;;;;;0.27;78.83;101261.22;4971463;28;20454;-70
2021/03/01 06:39:44;;;;;;;19.20;10.68;;;;;;;0.40;78.80;101260.59;4977320;28;20101;-71
2021/03/01 06:42:18;;;;;;;19.50;11.75;;;;;;;0.54;78.13;101259.09;4989444;28;20042;-70
2021/03/01 06:44:59;;;;;;;17.30;11.95;;;;;;;0.71;78.73;101253.25;4989250;28;20042;-69
2021/03/01 06:47:43;;;;;;;21.55;10.55;;;;;;;0.80;77.49;101262.06;4989499;28;20051;-70
2021/03/01 06:50:22;;;;;;;21.25;11.10;;;;;;;0.94;77.89;101256.19;5000872;28;20377;-70
2021/03/01 06:52:47;;;;;;;23.20;14.68;;;;;;;1.02;77.55;101251.97;4988919;28;20041;-70
2021/03/01 06:55:13;;;;;;;24.63;14.73;;;;;;;1.03;76.91;101256.31;4970859;28;20043;-70
2021/03/01 06:57:39;;;;;;;24.95;13.65;;;;;;;1.12;77.63;101255.56;4970263;28;20034;-71
2021/03/01 07:00:06;;;;;;;35.08;16.80;;;;;;;1.27;79.10;101260.94;4970019;28;20058;-71
2021/03/01 07:02:39;;;;;;;18.35;12.73;;;;;;;1.57;77.91;101264.78;4970427;28;20043;-70
2021/03/01 07:05:05;;;;;;;19.58;14.10;;;;;;;1.91;76.70;101259.06;4969951;28;20375;-70
2021/03/01 07:07:37;;;;;;;18.15;11.77;;;;;;;2.08;76.60;101260.97;4972672;28;20064;-70
2021/03/01 07:10:09;;;;;;;27.90;14.00;;;;;;;2.15;77.42;101262.78;4974331;28;20480;-70
2021/03/01 07:12:53;;;;;;;26.15;15.43;;;;;;;2.24;77.17;101260.25;4974144;28;20038;-69
2021/03/01 07:15:18;;;;;;;25.92;15.18;;;;;;;2.33;77.18;101256.84;4973911;28;20540;-71
2021/03/01 07:17:45;;;;;;;29.45;15.15;;;;;;;2.42;76.72;101262.13;4974714;28;20151;-71
2021/03/01 07:20:12;;;;;;;22.65;13.70;;;;;;;2.52;76.34;101260.47;4984804;28;20042;-71
2021/03/01 07:22:43;;;;;;;18.52;13.77;;;;;;;2.60;76.59;101258.78;4974662;28;20055;-71
2021/03/01 07:25:12;;;;;;;24.13;17.67;;;;;;;2.63;76.28;101253.59;4969213;28;20042;-70
2021/03/01 07:27:42;;;;;;;23.08;16.10;;;;;;;2.73;75.73;101251.94;4971603;28;20059;-71
2021/03/01 07:30:11;;;;;;;26.38;16.27;;;;;;;2.82;75.74;101256.34;4973159;28;20038;-71
2021/03/01 07:32:38;;;;;;;35.65;16.73;;;;;;;2.91;75.67;101261.59;4956506;28;20487;-73
2021/03/01 07:35:06;;;;;;;28.52;17.35;;;;;;;2.96;75.60;101257.28;4954138;28;20039;-72
2021/03/01 07:37:34;;;;;;;27.52;16.77;;;;;;;3.06;75.24;101259.09;4954334;28;20035;-72
2021/03/01 07:40:00;;;;;;;26.55;17.95;;;;;;;3.09;74.72;101253.88;4955219;28;20069;-70
2021/03/01 07:42:28;;;;;;;28.33;15.23;;;;;;;3.17;74.74;101252.16;4954075;28;20055;-72
2021/03/01 07:44:54;;;;;;;26.98;14.30;;;;;;;3.21;74.35;101245.25;4953525;28;20630;-73
2021/03/01 07:47:26;;;;;;;27.48;14.90;;;;;;;3.26;74.25;101242.69;4954499;28;22723;-72
2021/03/01 07:49:52;;;;;;;21.52;14.95;;;;;;;3.33;73.90;101244.44;4954786;28;20031;-70
2021/03/01 07:52:20;;;;;;;27.25;13.75;;;;;;;3.41;74.03;101242.72;4937449;28;20533;-70
2021/03/01 07:54:50;;;;;;;23.10;14.50;;;;;;;3.43;73.67;101247.09;4952914;28;20031;-71
2021/03/01 07:57:16;;;;;;;22.60;15.23;;;;;;;3.46;73.40;101243.59;4955074;28;20123;-72
2021/03/01 07:59:41;;;;;;;20.58;14.32;;;;;;;3.50;72.80;101240.16;4960298;28;20262;-73
2021/03/01 08:02:11;;;;;;;26.35;15.90;;;;;;;3.59;72.97;101245.41;4955516;28;20395;-71
2021/03/01 08:04:37;;;;;;;22.83;14.23;;;;;;;3.68;72.82;101241.94;4959690;28;20036;-71
2021/03/01 08:07:03;;;;;;;23.08;14.13;;;;;;;3.76;72.43;101241.94;4960062;28;20110;-70
2021/03/01 08:09:45;;;;;;;24.40;14.38;;;;;;;3.85;72.34;101227.19;4959100;28;20044;-70
2021/03/01 08:12:32;;;;;;;26.55;15.32;;;;;;;3.94;72.08;101234.19;4956437;29;20403;-70
2021/03/01 08:15:07;;;;;;;21.83;13.30;;;;;;;4.02;71.41;101240.25;4968032;28;20042;-71
2021/03/01 08:17:36;;;;;;;24.10;13.52;;;;;;;4.13;71.28;101234.19;4973761;28;20042;-69
2021/03/01 08:20:16;;;;;;;20.00;13.00;;;;;;;4.22;70.82;101232.44;4972825;28;20031;-69
2021/03/01 08:23:04;;;;;;;21.48;14.68;;;;;;;4.36;70.59;101231.59;4972557;28;20565;-69
2021/03/01 08:28:15;;;;;;;24.77;15.43;;;;;;;4.54;69.83;101235.91;4971151;28;20120;-70
2021/03/01 08:30:42;;;;;;;22.77;14.05;;;;;;;4.64;69.48;101227.19;4963521;28;20050;-69
2021/03/01 08:33:10;;;;;;;22.52;12.77;;;;;;;4.77;69.56;101225.41;4964651;28;20502;-70
2021/03/01 08:35:36;;;;;;;23.60;13.75;;;;;;;4.88;69.19;101228.88;4961731;28;20093;-70
2021/03/01 08:38:02;;;;;;;18.52;12.52;;;;;;;4.98;69.40;101227.97;4963534;28;20042;-70
2021/03/01 08:40:28;;;;;;;19.88;13.75;;;;;;;4.97;68.15;101217.53;4961995;28;20047;-72
2021/03/01 08:42:59;;;;;;;21.90;12.45;;;;;;;5.11;68.51;101220.97;4969738;28;20105;-71
2021/03/01 08:45:30;;;;;;;24.25;13.60;;;;;;;5.21;67.39;101222.66;4961639;28;20047;-72
2021/03/01 08:47:58;;;;;;;22.88;12.68;;;;;;;5.36;67.07;101219.97;4953054;28;20061;-71
2021/03/01 08:50:39;;;;;;;23.30;13.77;;;;;;;5.49;66.61;101220.81;4953352;28;20035;-70
2021/03/01 08:53:05;;;;;;;22.02;13.13;;;;;;;5.55;66.44;101209.44;4953472;29;20491;-69
2021/03/01 08:55:32;;;;;;;22.38;12.82;;;;;;;5.69;65.95;101206.75;4953135;28;20031;-69
2021/03/01 08:58:13;;;;;;;20.00;12.77;;;;;;;5.82;65.64;101214.50;4953027;29;20086;-68
2021/03/01 09:00:50;;;;;;;21.50;13.13;;;;;;;5.94;65.28;101205.72;4952902;28;20039;-69
2021/03/01 09:03:27;;;;;;;18.42;11.80;;;;;;;6.21;66.92;101204.63;4967934;28;20071;-69
2021/03/01 09:06:02;;;;;;;50.67;17.90;;;;;;;6.74;62.79;101209.38;4972513;28;20033;-68
2021/03/01 09:08:30;;;;;;;29.55;15.73;;;;;;;7.94;58.68;101201.69;4960669;28;20042;-69
2021/03/01 09:10:57;;;;;;;19.25;11.35;;;;;;;9.17;55.68;101196.84;4972650;28;20030;-70
2021/03/01 09:13:24;;;;;;;26.98;16.13;;;;;;;10.23;52.51;101189.16;4979439;28;20560;-70
2021/03/01 09:15:50;;;;;;;27.23;15.35;;;;;;;11.34;50.47;101199.34;4979323;28;20046;-70
2021/03/01 09:18:16;;;;;;;27.05;16.88;;;;;;;11.99;47.25;101195.63;4973585;28;20042;-69
2021/03/01 09:20:57;;;;;;;30.55;17.88;;;;;;;12.71;44.89;101187.00;4974827;28;20150;-69
2021/03/01 09:23:39;;;;;;;31.33;20.58;;;;;;;13.20;43.81;101190.50;4971677;28;20054;-69
2021/03/01 09:26:07;;;;;;;32.63;20.13;;;;;;;13.62;42.48;101190.66;4977090;28;20402;-70
2021/03/01 09:28:35;;;;;;;24.48;15.45;;;;;;;13.65;41.70;101193.19;4973691;28;20039;-69
2021/03/01 09:31:06;;;;;;;24.98;15.05;;;;;;;14.47;40.64;101193.38;4980387;28;20463;-73
2021/03/01 09:33:32;;;;;;;18.63;13.85;;;;;;;14.92;38.73;101200.28;4959854;28;20097;-71
2021/03/01 09:35:57;;;;;;;20.15;13.55;;;;;;;15.37;38.62;101184.97;4975256;28;20709;-68
2021/03/01 09:38:23;;;;;;;21.75;14.85;;;;;;;15.88;37.33;101188.78;4976093;28;20042;-69
2021/03/01 09:41:00;;;;;;;23.17;13.05;;;;;;;15.98;36.45;101183.88;4979688;28;20105;-69
2021/03/01 09:43:26;;;;;;;15.55;11.48;;;;;;;16.09;36.56;101187.69;4977534;28;20101;-69
2021/03/01 09:45:52;;;;;;;15.68;12.43;;;;;;;16.70;35.73;101186.38;4978153;28;20851;-70
2021/03/01 09:48:18;;;;;;;19.58;11.80;;;;;;;16.64;35.27;101178.72;4975779;28;20058;-69
2021/03/01 09:50:44;;;;;;;17.13;10.95;;;;;;;16.70;34.61;101180.19;4969268;28;20836;-70
2021/03/01 09:53:10;;;;;;;15.25;12.38;;;;;;;16.57;34.84;101179.13;4964732;28;20034;-70
2021/03/01 09:55:36;;;;;;;15.65;10.48;;;;;;;17.09;34.43;101187.88;4977541;28;20074;-70
2021/03/01 09:58:20;;;;;;;16.67;11.10;;;;;;;17.53;33.28;101175.75;4974682;28;20034;-69
2021/03/01 10:00:45;;;;;;;22.08;11.25;;;;;;;17.82;32.55;101166.13;4979823;28;20088;-69
2021/03/01 10:03:11;;;;;;;20.83;11.70;;;;;;;17.56;33.00;101164.88;4981274;28;20410;-69
2021/03/01 10:05:36;;;;;;;16.15;10.63;;;;;;;17.92;32.13;101167.31;4972591;28;20041;-70
2021/03/01 10:08:04;;;;;;;13.68;10.75;;;;;;;18.02;32.02;101163.16;4958842;28;20043;-71
2021/03/01 10:10:48;;;;;;;15.80;11.05;;;;;;;18.07;31.64;101159.38;4959132;28;20102;-71
2021/03/01 10:13:34;;;;;;;23.00;10.60;;;;;;;18.17;31.39;101152.53;4967515;28;20128;-70
2021/03/01 10:16:02;;;;;;;20.65;10.23;;;;;;;18.07;31.30;101151.34;4973155;28;20045;-71
2021/03/01 10:18:30;;;;;;;18.30;10.40;;;;;;;18.12;31.29;101150.13;4977029;28;20035;-71
2021/03/01 10:21:04;;;;;;;14.88;9.98;;;;;;;18.24;31.16;101154.75;4975147;28;20038;-72
2021/03/01 10:23:43;;;;;;;11.27;8.23;;;;;;;18.72;29.99;101151.00;4977420;28;20042;-72
2021/03/01 10:26:20;;;;;;;13.20;8.20;;;;;;;19.25;29.30;101153.03;4965844;28;20047;-71
2021/03/01 10:29:00;;;;;;;15.27;11.35;;;;;;;19.05;29.35;101151.63;4973080;28;20085;-71
2021/03/01 10:31:33;;;;;;;16.52;9.40;;;;;;;19.12;29.28;101149.41;4949869;28;20054;-71
2021/03/01 10:34:04;;;;;;;22.02;9.07;;;;;;;19.29;28.70;101142.97;4975355;28;20114;-71
2021/03/01 10:36:40;;;;;;;17.52;9.88;;;;;;;19.06;29.23;101149.78;4971907;28;20042;-71
2021/03/01 10:39:14;;;;;;;27.33;12.63;;;;;;;19.11;30.28;101144.16;4972327;28;20066;-72
2021/03/01 10:41:48;;;;;;;16.55;11.32;;;;;;;18.75;30.29;101134.78;4970120;28;20104;-71
2021/03/01 10:44:14;;;;;;;15.95;10.52;;;;;;;18.24;30.60;101136.06;4973803;28;20546;-71
2021/03/01 10:46:47;;;;;;;22.30;10.18;;;;;;;17.68;31.64;101134.00;4976149;28;20128;-72
2021/03/01 10:49:32;;;;;;;17.00;11.60;;;;;;;16.97;32.66;101143.25;4955238;28;20070;-71
2021/03/01 10:51:59;;;;;;;;;;;;;;;16.12;34.58;101145.91;4974970;28;20031;-64
2021/03/01 10:54:27;;;;;;;14.90;11.05;;;;;;;16.00;34.71;101142.94;4983138;28;19918;-65
2021/03/01 10:56:54;;;;;;;17.33;9.98;;;;;;;16.15;34.24;101138.66;4980142;28;20031;-65
2021/03/01 10:59:19;;;;;;;18.63;9.68;;;;;;;15.99;34.95;101145.69;4986512;28;20084;-67
2021/03/01 11:01:46;;;;;;;16.60;10.50;;;;;;;15.72;35.83;101139.94;4978498;28;20034;-72
2021/03/01 11:04:14;;;;;;;13.55;9.88;;;;;;;15.42;36.37;101143.94;4965142;28;20049;-71
2021/03/01 11:06:41;;;;;;;17.02;9.98;;;;;;;14.95;36.26;101138.22;4972529;28;20082;-70
2021/03/01 11:09:09;;;;;;;14.68;9.55;;;;;;;14.41;36.70;101132.59;4966834;28;20129;-73
2021/03/01 11:11:36;;;;;;;14.07;8.65;;;;;;;13.98;37.82;101141.53;4982139;28;20049;-69
2021/03/01 11:14:02;;;;;;;15.02;9.60;;;;;;;13.52;38.47;101138.97;4975504;28;20058;-70
2021/03/01 11:16:28;;;;;;;13.55;9.48;;;;;;;13.26;39.47;101132.84;4975568;28;20031;-70
2021/03/01 11:18:53;;;;;;;14.15;9.25;;;;;;;13.14;39.77;101122.75;4978674;28;20027;-71
2021/03/01 11:21:20;;;;;;;11.38;8.82;;;;;;;13.02;40.25;101125.84;4971166;28;20081;-72
2021/03/01 11:23:47;;;;;;;16.95;10.38;;;;;;;12.97;40.57;101126.06;4975221;28;20049;-71
2021/03/01 11:26:14;;;;;;;16.35;9.70;;;;;;;12.88;40.90;101131.69;4978775;28;20046;-70
2021/03/01 11:28:40;;;;;;;15.10;10.35;;;;;;;12.73;41.46;101117.25;4976269;28;20075;-70